Time;durP1;ratioP1;P1;durP2;ratioP2;P2;SDS_P1;SDS_P2;PMS_P1;PMS_P2;Temp;Humidity;BMP_temperature;BMP_pressure;BME280_temperature;BME280_humidity;BME280_pressure;Samples;Min_cycle;Max_cycle;Signal;HPM_P1;HPM_P2
2022/11/06 00:01:16;;;;;;;12.98;6.53;;;9.00;99.90;;;;;;4968797;28;20042;-70
2022/11/06 00:03:42;;;;;;;11.90;7.13;;;9.00;99.90;;;;;;4947754;28;20042;-71
2022/11/06 00:08:53;;;;;;;10.75;6.68;;;9.00;99.90;;;;;;4964315;28;20493;-70
2022/11/06 00:11:19;;;;;;;13.02;7.72;;;9.10;99.90;;;;;;4962171;28;20043;-70
2022/11/06 00:13:51;;;;;;;9.80;6.68;;;9.10;99.90;;;;;;4953533;28;20034;-70
2022/11/06 00:16:18;;;;;;;10.07;6.45;;;9.10;99.90;;;;;;4952658;28;20098;-70
2022/11/06 00:18:44;;;;;;;10.73;7.13;;;9.10;99.90;;;;;;4963288;28;20039;-70
2022/11/06 00:21:17;;;;;;;14.80;6.70;;;9.10;99.90;;;;;;4946338;28;20562;-70
2022/11/06 00:23:43;;;;;;;10.68;6.65;;;9.10;99.90;;;;;;4962966;28;20496;-71
2022/11/06 00:26:15;;;;;;;10.93;6.78;;;9.10;99.90;;;;;;4965605;28;20480;-71
2022/11/06 00:28:41;;;;;;;12.02;7.88;;;9.10;99.90;;;;;;4946643;28;20039;-70
2022/11/06 00:31:09;;;;;;;12.88;6.80;;;9.10;99.90;;;;;;4946444;28;20054;-70
2022/11/06 00:33:35;;;;;;;12.25;7.25;;;9.10;99.90;;;;;;4960897;28;20039;-70
2022/11/06 00:36:04;;;;;;;15.32;7.22;;;9.10;99.90;;;;;;4963873;28;20046;-70
2022/11/06 00:38:30;;;;;;;12.93;7.20;;;9.10;99.90;;;;;;4976522;28;20053;-70
2022/11/06 00:40:56;;;;;;;11.13;6.88;;;9.10;99.90;;;;;;4950381;28;20043;-70
2022/11/06 00:43:22;;;;;;;9.02;6.78;;;9.10;99.90;;;;;;4959053;28;20093;-70
2022/11/06 00:45:47;;;;;;;10.07;6.88;;;9.10;99.90;;;;;;4960958;28;20038;-70
2022/11/06 00:48:13;;;;;;;11.27;7.53;;;9.10;99.90;;;;;;4962917;28;20035;-70
2022/11/06 00:50:39;;;;;;;10.85;6.85;;;9.10;99.90;;;;;;4945065;28;20054;-70
2022/11/06 00:53:05;;;;;;;8.68;6.13;;;9.10;99.90;;;;;;4968345;28;20050;-70
2022/11/06 00:55:31;;;;;;;11.90;6.80;;;9.10;99.90;;;;;;4951145;28;20516;-71
2022/11/06 00:57:57;;;;;;;14.65;7.00;;;9.10;99.90;;;;;;4937035;28;20035;-70
2022/11/06 01:00:24;;;;;;;12.90;7.35;;;9.10;99.90;;;;;;4964022;28;20043;-70
2022/11/06 01:02:50;;;;;;;14.20;7.80;;;9.10;99.90;;;;;;4966620;28;20069;-70
2022/11/06 01:05:16;;;;;;;11.40;6.47;;;9.00;99.90;;;;;;4946699;28;20067;-71
2022/11/06 01:07:41;;;;;;;13.32;7.68;;;9.00;99.90;;;;;;4960766;28;20038;-70
2022/11/06 01:10:08;;;;;;;10.77;6.75;;;9.00;99.90;;;;;;4947987;28;20522;-71
2022/11/06 01:12:41;;;;;;;13.30;6.97;;;9.00;99.90;;;;;;4976494;28;20038;-71
2022/11/06 01:15:07;;;;;;;12.90;7.15;;;9.00;99.90;;;;;;4967244;28;20050;-70
2022/11/06 01:17:34;;;;;;;15.77;7.68;;;8.90;99.90;;;;;;4966721;28;20042;-70
2022/11/06 01:20:00;;;;;;;12.63;7.20;;;8.90;99.90;;;;;;4968819;28;20502;-70
2022/11/06 01:22:33;;;;;;;12.70;6.78;;;8.90;99.90;;;;;;4955061;28;20050;-70
2022/11/06 01:24:58;;;;;;;8.13;6.50;;;8.90;99.90;;;;;;4965677;28;20041;-70
2022/11/06 01:27:24;;;;;;;12.32;6.68;;;9.00;99.90;;;;;;4964712;28;20043;-70
2022/11/06 01:29:50;;;;;;;9.85;6.72;;;9.00;99.90;;;;;;4965228;28;20039;-70
2022/11/06 01:32:16;;;;;;;14.73;6.97;;;9.00;99.90;;;;;;4949283;28;20488;-71
2022/11/06 01:35:01;;;;;;;10.20;6.30;;;9.00;99.90;;;;;;4952093;28;20078;-70
2022/11/06 01:37:29;;;;;;;17.85;7.38;;;9.00;99.90;;;;;;4965599;28;20047;-71
2022/11/06 01:39:57;;;;;;;11.93;6.20;;;9.00;99.90;;;;;;4951440;28;20496;-71
2022/11/06 01:42:23;;;;;;;14.65;7.65;;;9.00;99.90;;;;;;4965865;28;20049;-70
2022/11/06 01:45:12;;;;;;;13.15;6.45;;;9.00;99.90;;;;;;4949237;28;20039;-70
2022/11/06 01:47:38;;;;;;;14.68;7.30;;;9.00;99.90;;;;;;4950462;28;20047;-71
2022/11/06 01:50:07;;;;;;;11.15;6.75;;;8.90;99.90;;;;;;4961330;28;20050;-70
2022/11/06 01:52:33;;;;;;;11.75;7.63;;;8.90;99.90;;;;;;4962768;28;20111;-71
2022/11/06 01:55:22;;;;;;;10.82;7.32;;;8.90;99.90;;;;;;4964867;28;20159;-70
2022/11/06 01:57:49;;;;;;;12.75;7.03;;;8.80;99.90;;;;;;4964915;28;20546;-70
2022/11/06 02:00:16;;;;;;;15.88;7.93;;;8.80;99.90;;;;;;4966338;28;20523;-70
2022/11/06 02:02:42;;;;;;;13.35;7.10;;;8.80;99.90;;;;;;4965766;28;20459;-70
2022/11/06 02:05:08;;;;;;;13.02;7.25;;;8.80;99.90;;;;;;4959860;28;20034;-70
2022/11/06 02:07:34;;;;;;;15.23;7.68;;;8.70;99.90;;;;;;4947631;28;20039;-70
2022/11/06 02:10:00;;;;;;;13.23;7.00;;;8.70;99.90;;;;;;4953648;28;20042;-70
2022/11/06 02:12:26;;;;;;;12.85;6.70;;;8.70;99.90;;;;;;4951419;28;20050;-70
2022/11/06 02:15:18;;;;;;;10.55;6.95;;;8.70;99.90;;;;;;4962528;28;20046;-70
2022/11/06 02:18:17;;;;;;;17.05;7.20;;;8.70;99.90;;;;;;4945891;28;20062;-70
2022/11/06 02:20:52;;;;;;;13.40;7.15;;;8.70;99.90;;;;;;4968552;28;20485;-71
2022/11/06 02:23:43;;;;;;;12.75;6.68;;;8.70;99.90;;;;;;4966245;28;20043;-70
2022/11/06 02:26:46;;;;;;;12.32;7.35;;;8.70;99.90;;;;;;4955308;28;20500;-71
2022/11/06 02:29:20;;;;;;;13.55;7.35;;;8.70;99.90;;;;;;4968729;28;20034;-71
2022/11/06 02:31:49;;;;;;;10.07;7.00;;;8.70;99.90;;;;;;4970437;28;20050;-71
2022/11/06 02:34:19;;;;;;;11.38;6.28;;;8.70;99.90;;;;;;4962882;28;20108;-70
2022/11/06 02:37:10;;;;;;;15.00;7.75;;;8.60;99.90;;;;;;4971656;28;20129;-71
2022/11/06 02:39:44;;;;;;;11.32;7.40;;;8.60;99.90;;;;;;4965513;28;20054;-71
2022/11/06 02:42:13;;;;;;;13.05;7.85;;;8.60;99.90;;;;;;4948401;28;20047;-71
2022/11/06 02:44:41;;;;;;;14.32;7.78;;;8.50;99.90;;;;;;4975344;28;21006;-70
2022/11/06 02:47:09;;;;;;;11.98;8.02;;;8.50;99.90;;;;;;4946992;28;20082;-71
2022/11/06 02:50:00;;;;;;;14.70;8.38;;;8.50;99.90;;;;;;4950437;28;20065;-71
2022/11/06 02:52:33;;;;;;;13.63;7.22;;;8.40;99.90;;;;;;4953096;28;20078;-71
2022/11/06 02:55:02;;;;;;;;;;;8.40;99.90;;;;;;4949961;28;20047;-71
2022/11/06 02:57:58;;;;;;;16.73;7.60;;;8.40;99.90;;;;;;4965065;28;19918;-70
2022/11/06 03:00:26;;;;;;;13.55;7.47;;;8.40;99.90;;;;;;4965191;28;20301;-70
2022/11/06 03:02:56;;;;;;;17.15;8.15;;;8.40;99.90;;;;;;4966047;28;20057;-70
2022/11/06 03:05:46;;;;;;;12.55;6.70;;;8.30;99.90;;;;;;4961059;28;20571;-71
2022/11/06 03:08:46;;;;;;;13.18;7.03;;;8.30;99.90;;;;;;4960116;28;20061;-71
2022/11/06 03:11:20;;;;;;;10.48;6.75;;;8.30;99.90;;;;;;4965401;28;20054;-70
2022/11/06 03:14:13;;;;;;;13.05;7.47;;;8.30;99.90;;;;;;4960595;28;20594;-70
2022/11/06 03:16:47;;;;;;;12.80;6.70;;;8.30;99.90;;;;;;4966006;28;20041;-70
2022/11/06 03:19:22;;;;;;;14.88;6.43;;;8.30;99.90;;;;;;4969034;28;20053;-70
2022/11/06 03:22:13;;;;;;;12.57;7.97;;;8.30;99.90;;;;;;4978635;28;20045;-70
2022/11/06 03:24:43;;;;;;;13.10;7.43;;;8.30;99.90;;;;;;4963270;28;20061;-70
2022/11/06 03:27:15;;;;;;;11.45;6.68;;;8.30;99.90;;;;;;4959502;28;20411;-70
2022/11/06 03:29:52;;;;;;;;;;;8.30;99.90;;;;;;4949661;28;20049;-71
2022/11/06 03:32:24;;;;;;;9.38;6.93;;;8.30;99.90;;;;;;4964894;28;19918;-70
2022/11/06 03:35:01;;;;;;;14.88;6.72;;;8.30;99.90;;;;;;4952400;28;20085;-70
2022/11/06 03:37:38;;;;;;;14.05;6.70;;;8.30;99.90;;;;;;4960675;28;20130;-71
2022/11/06 03:40:08;;;;;;;10.30;6.97;;;8.30;99.90;;;;;;4944729;28;20081;-70
2022/11/06 03:42:36;;;;;;;14.02;6.85;;;8.30;99.90;;;;;;4967261;28;20039;-70
2022/11/06 03:45:07;;;;;;;14.07;6.50;;;8.40;99.90;;;;;;4970331;28;20165;-70
2022/11/06 03:47:41;;;;;;;;;;;8.40;99.90;;;;;;4965929;28;20042;-70
2022/11/06 03:50:17;;;;;;;12.40;6.10;;;8.30;99.90;;;;;;4967253;28;20429;-70
2022/11/06 03:52:48;;;;;;;11.27;6.10;;;8.40;99.90;;;;;;4965782;28;20050;-70
2022/11/06 03:55:18;;;;;;;13.75;6.00;;;8.40;99.90;;;;;;4963181;28;20047;-70
2022/11/06 03:57:52;;;;;;;13.25;6.10;;;8.40;99.90;;;;;;4969065;28;20053;-70
2022/11/06 04:00:22;;;;;;;15.60;5.93;;;8.40;99.90;;;;;;4966199;28;20078;-71
2022/11/06 04:03:03;;;;;;;14.80;6.13;;;8.40;99.90;;;;;;4962782;28;20432;-71
2022/11/06 04:05:37;;;;;;;13.75;5.93;;;8.40;99.90;;;;;;4962104;28;20146;-71
2022/11/06 04:14:21;;;;;;;12.82;6.00;;;8.50;99.90;;;;;;4959921;28;20042;-71
2022/11/06 04:16:59;;;;;;;8.15;5.90;;;8.40;99.90;;;;;;4974932;28;20041;-71
2022/11/06 04:19:49;;;;;;;11.10;5.85;;;8.40;99.90;;;;;;4963032;28;20051;-71
2022/11/06 04:22:52;;;;;;;12.15;6.07;;;8.30;99.90;;;;;;4964931;28;20043;-70
2022/11/06 04:28:49;;;;;;;13.60;5.82;;;8.30;99.90;;;;;;4951037;28;20042;-70
2022/11/06 04:31:32;;;;;;;18.00;5.97;;;8.30;99.90;;;;;;4950413;28;20130;-70
2022/11/06 04:34:09;;;;;;;11.50;5.32;;;8.40;99.90;;;;;;4952037;28;20489;-70
2022/11/06 04:36:41;;;;;;;15.70;5.68;;;8.40;99.90;;;;;;4946148;28;20404;-70
2022/11/06 04:39:18;;;;;;;10.50;5.35;;;8.40;99.90;;;;;;4958365;28;20046;-70
2022/11/06 04:41:53;;;;;;;11.98;5.28;;;8.40;99.90;;;;;;4953041;28;20043;-71
2022/11/06 04:44:30;;;;;;;11.07;5.38;;;8.40;99.90;;;;;;4948852;28;20099;-70
2022/11/06 04:47:08;;;;;;;11.77;5.90;;;8.30;99.90;;;;;;4953988;28;20046;-70
2022/11/06 04:49:37;;;;;;;14.48;5.70;;;8.30;99.90;;;;;;4952913;28;20042;-70
2022/11/06 04:52:07;;;;;;;8.75;5.20;;;8.30;99.90;;;;;;4951587;28;20038;-70
2022/11/06 04:54:34;;;;;;;11.02;5.65;;;8.30;99.90;;;;;;4966642;28;20039;-70
2022/11/06 04:57:02;;;;;;;13.23;6.15;;;8.30;99.90;;;;;;4952930;28;20493;-71
2022/11/06 04:59:32;;;;;;;8.77;5.70;;;8.30;99.90;;;;;;4936241;28;20039;-70
2022/11/06 05:02:09;;;;;;;11.07;5.75;;;8.30;99.90;;;;;;4963591;28;20051;-70
2022/11/06 05:04:35;;;;;;;18.55;5.78;;;8.30;99.90;;;;;;4948667;28;20765;-70
2022/11/06 05:07:33;;;;;;;16.90;6.07;;;8.30;99.90;;;;;;4952636;28;20050;-70
2022/11/06 05:09:59;;;;;;;11.38;5.85;;;8.20;99.90;;;;;;4936195;29;20047;-70
2022/11/06 05:12:25;;;;;;;11.07;5.47;;;8.20;99.90;;;;;;4914840;29;20929;-70
2022/11/06 05:15:08;;;;;;;13.63;6.22;;;8.20;99.90;;;;;;4927487;28;20098;-70
2022/11/06 05:17:34;;;;;;;12.00;5.78;;;8.20;99.90;;;;;;4933435;28;20126;-70
2022/11/06 05:20:00;;;;;;;12.77;5.55;;;8.20;99.90;;;;;;4917517;29;20481;-70
2022/11/06 05:25:10;;;;;;;10.52;5.18;;;8.20;99.90;;;;;;4932774;28;20063;-71
2022/11/06 05:27:36;;;;;;;11.40;5.60;;;8.20;99.90;;;;;;4916046;28;20062;-70
2022/11/06 05:30:01;;;;;;;12.05;5.55;;;8.20;99.90;;;;;;4931097;28;20078;-70
2022/11/06 05:32:27;;;;;;;9.27;5.30;;;8.20;99.90;;;;;;4915446;28;20059;-70
2022/11/06 05:34:53;;;;;;;10.32;5.57;;;8.30;99.90;;;;;;4933432;28;20096;-70
2022/11/06 05:37:21;;;;;;;11.48;4.93;;;8.20;99.90;;;;;;4902139;28;20039;-70
2022/11/06 05:39:46;;;;;;;9.73;4.72;;;8.30;99.90;;;;;;4950756;28;20510;-70
2022/11/06 05:42:12;;;;;;;18.38;5.53;;;8.30;99.90;;;;;;4949254;28;20039;-70
2022/11/06 05:44:38;;;;;;;6.28;4.30;;;8.30;99.90;;;;;;4950981;28;20041;-69
2022/11/06 05:47:04;;;;;;;10.98;4.70;;;8.30;99.90;;;;;;4951675;28;20114;-70
2022/11/06 05:49:29;;;;;;;10.25;4.60;;;8.30;99.90;;;;;;4946533;28;20110;-69
2022/11/06 05:51:55;;;;;;;15.40;5.10;;;8.30;99.90;;;;;;4948622;28;20165;-70
2022/11/06 05:54:21;;;;;;;9.18;4.95;;;8.30;99.90;;;;;;4952902;28;20043;-70
2022/11/06 05:56:47;;;;;;;13.35;5.00;;;8.30;99.90;;;;;;4936650;28;20095;-70
2022/11/06 05:59:12;;;;;;;9.70;4.50;;;8.30;99.90;;;;;;4934658;28;20043;-70
2022/11/06 06:01:38;;;;;;;9.15;4.00;;;8.30;99.90;;;;;;4936946;28;20039;-70
2022/11/06 06:04:04;;;;;;;8.65;3.85;;;8.30;99.90;;;;;;4956992;28;20082;-70
2022/11/06 06:06:30;;;;;;;10.48;3.92;;;8.30;99.90;;;;;;4952348;28;20040;-70
2022/11/06 06:08:56;;;;;;;16.67;4.28;;;8.30;99.90;;;;;;4953702;28;20035;-69
2022/11/06 06:11:21;;;;;;;17.63;4.20;;;8.30;99.90;;;;;;4937828;28;20094;-70
2022/11/06 06:13:47;;;;;;;9.95;4.15;;;8.30;99.90;;;;;;4935908;28;20038;-70
2022/11/06 06:16:13;;;;;;;15.10;4.28;;;8.30;99.90;;;;;;4951885;28;20126;-70
2022/11/06 06:18:38;;;;;;;9.98;4.07;;;8.30;99.90;;;;;;4955020;28;20058;-70
2022/11/06 06:21:04;;;;;;;12.88;4.32;;;8.30;99.90;;;;;;4937295;28;20051;-70
2022/11/06 06:23:31;;;;;;;11.52;4.22;;;8.40;99.90;;;;;;4951940;28;20078;-70
2022/11/06 06:25:57;;;;;;;9.88;4.40;;;8.40;99.90;;;;;;4933891;28;20046;-70
2022/11/06 06:28:22;;;;;;;9.30;4.00;;;8.40;99.90;;;;;;4932755;28;20390;-69
2022/11/06 06:30:48;;;;;;;9.40;4.28;;;8.40;99.90;;;;;;4969604;28;20373;-70
2022/11/06 06:33:14;;;;;;;10.35;4.05;;;8.40;99.90;;;;;;4951325;28;20047;-70
2022/11/06 06:35:40;;;;;;;9.45;4.10;;;8.60;99.90;;;;;;4953560;28;20119;-70
2022/11/06 06:38:05;;;;;;;8.48;3.97;;;8.50;99.90;;;;;;4950784;28;20445;-70
2022/11/06 06:40:31;;;;;;;10.80;3.45;;;8.50;99.90;;;;;;4952331;28;20031;-70
2022/11/06 06:42:57;;;;;;;11.68;4.68;;;8.50;99.90;;;;;;4951420;28;20389;-70
2022/11/06 06:45:24;;;;;;;8.73;3.75;;;8.50;99.90;;;;;;4952827;28;20042;-70
2022/11/06 06:47:50;;;;;;;7.50;3.50;;;8.50;99.90;;;;;;4950355;28;20392;-70
2022/11/06 06:50:16;;;;;;;8.63;3.35;;;8.50;99.90;;;;;;4950853;28;20035;-70
2022/11/06 06:52:41;;;;;;;8.75;3.75;;;8.50;99.90;;;;;;4954155;28;20038;-70
2022/11/06 06:55:07;;;;;;;9.63;4.00;;;8.50;99.90;;;;;;4931177;28;20078;-70
2022/11/06 06:57:33;;;;;;;8.35;3.83;;;8.50;99.90;;;;;;4951714;28;20117;-70
2022/11/06 06:59:59;;;;;;;9.30;3.80;;;8.50;99.90;;;;;;4936109;28;20050;-70
2022/11/06 07:02:24;;;;;;;9.98;4.00;;;8.50;99.90;;;;;;4934928;28;20086;-70
2022/11/06 07:04:50;;;;;;;8.48;3.58;;;8.50;99.90;;;;;;4934826;28;20058;-70
2022/11/06 07:07:16;;;;;;;6.55;3.10;;;8.50;99.90;;;;;;4948096;28;20043;-70
2022/11/06 07:09:42;;;;;;;12.00;4.22;;;8.60;99.90;;;;;;4950697;28;20370;-70
2022/11/06 07:12:07;;;;;;;5.43;3.65;;;8.60;99.90;;;;;;4958197;28;20419;-69
2022/11/06 07:14:33;;;;;;;10.15;3.97;;;8.60;99.90;;;;;;4937246;28;20098;-70
2022/11/06 07:16:59;;;;;;;7.68;3.30;;;8.60;99.90;;;;;;4935615;28;20044;-70
2022/11/06 07:19:28;;;;;;;8.55;3.40;;;8.60;99.90;;;;;;4956939;28;20038;-70
2022/11/06 07:21:54;;;;;;;8.30;3.50;;;8.70;99.90;;;;;;4939868;28;20533;-70
2022/11/06 07:24:20;;;;;;;13.20;3.90;;;8.70;99.90;;;;;;4952466;28;20118;-70
2022/11/06 07:26:46;;;;;;;9.35;3.53;;;8.70;99.90;;;;;;4952646;28;20063;-70
2022/11/06 07:29:12;;;;;;;12.20;3.63;;;8.70;99.90;;;;;;4949153;28;20066;-70
2022/11/06 07:31:37;;;;;;;11.55;3.55;;;8.80;99.90;;;;;;4953327;28;20047;-70
2022/11/06 07:34:03;;;;;;;7.68;3.25;;;8.80;99.90;;;;;;4953145;28;20468;-69
2022/11/06 07:36:30;;;;;;;9.38;3.67;;;8.80;99.90;;;;;;4941077;28;20101;-70
2022/11/06 07:38:57;;;;;;;8.30;3.28;;;8.90;99.90;;;;;;4940361;28;20039;-70
2022/11/06 07:41:22;;;;;;;10.32;3.60;;;8.90;99.90;;;;;;4954422;28;20460;-70
2022/11/06 07:43:48;;;;;;;10.68;3.17;;;8.90;99.90;;;;;;4937142;28;20122;-70
2022/11/06 07:46:14;;;;;;;7.60;3.00;;;8.90;99.90;;;;;;4945242;28;20050;-70
2022/11/06 07:48:40;;;;;;;12.73;3.00;;;8.90;99.90;;;;;;4940759;28;20122;-70
2022/11/06 07:51:08;;;;;;;7.45;2.90;;;9.00;99.90;;;;;;4942690;28;20400;-70
2022/11/06 07:53:34;;;;;;;11.43;3.20;;;9.00;99.90;;;;;;4955392;28;20114;-70
2022/11/06 07:56:00;;;;;;;12.63;3.20;;;9.00;99.90;;;;;;4953848;28;20045;-70
2022/11/06 07:58:27;;;;;;;6.80;2.83;;;9.10;99.90;;;;;;4958926;28;20043;-70
2022/11/06 08:00:55;;;;;;;10.95;3.00;;;9.10;99.90;;;;;;4950124;28;20040;-70
2022/11/06 08:03:22;;;;;;;9.48;3.45;;;9.10;99.90;;;;;;4952722;28;20122;-70
2022/11/06 08:05:49;;;;;;;8.05;3.05;;;9.20;99.90;;;;;;4950829;28;20035;-70
2022/11/06 08:08:16;;;;;;;5.80;2.75;;;9.20;99.90;;;;;;4951450;28;20074;-70
2022/11/06 08:10:46;;;;;;;5.50;2.88;;;9.20;99.90;;;;;;4947607;28;20074;-70
2022/11/06 08:13:16;;;;;;;8.68;2.80;;;9.20;99.90;;;;;;4946822;28;20059;-70
2022/11/06 08:15:43;;;;;;;3.88;2.53;;;9.30;99.90;;;;;;4946373;28;20043;-70
2022/11/06 08:18:10;;;;;;;4.63;2.72;;;9.30;99.90;;;;;;4946956;28;20050;-70
2022/11/06 08:20:37;;;;;;;9.25;3.88;;;9.30;99.90;;;;;;4951449;28;20057;-71
2022/11/06 08:23:06;;;;;;;6.78;2.88;;;9.40;99.90;;;;;;4953477;28;20416;-70
2022/11/06 08:25:32;;;;;;;10.80;3.47;;;9.40;99.90;;;;;;4951765;28;20066;-71
2022/11/06 08:28:00;;;;;;;7.40;3.03;;;9.60;99.90;;;;;;4949011;28;20035;-70
2022/11/06 08:30:27;;;;;;;8.25;2.97;;;9.70;99.90;;;;;;4952233;28;20102;-70
2022/11/06 08:32:54;;;;;;;5.57;2.70;;;9.90;99.90;;;;;;4949442;28;20078;-70
2022/11/06 08:35:20;;;;;;;6.35;2.92;;;10.00;99.90;;;;;;4968368;28;20039;-71
2022/11/06 08:37:46;;;;;;;5.53;2.58;;;10.00;99.90;;;;;;4949321;28;20037;-70
2022/11/06 08:40:12;;;;;;;5.30;2.60;;;10.00;99.90;;;;;;4953589;28;20042;-70
2022/11/06 08:42:38;;;;;;;6.43;3.08;;;9.90;99.90;;;;;;4931360;28;20054;-70
2022/11/06 08:45:05;;;;;;;9.18;3.55;;;9.90;99.90;;;;;;4927757;28;20552;-70
2022/11/06 08:47:31;;;;;;;7.90;2.80;;;9.90;99.90;;;;;;4948041;28;20089;-71
2022/11/06 08:49:57;;;;;;;11.07;3.00;;;9.90;99.90;;;;;;4934262;28;20037;-70
2022/11/06 08:52:22;;;;;;;8.35;2.60;;;9.90;99.90;;;;;;4917546;28;20126;-70
2022/11/06 08:54:48;;;;;;;7.72;2.90;;;9.90;99.90;;;;;;4948520;28;20414;-70
2022/11/06 08:57:14;;;;;;;7.38;3.00;;;9.90;99.90;;;;;;4948822;28;20031;-70
2022/11/06 08:59:40;;;;;;;8.90;2.78;;;9.90;99.90;;;;;;4946725;28;20061;-70
2022/11/06 09:02:06;;;;;;;6.35;2.97;;;9.90;99.90;;;;;;4947565;28;20079;-70
2022/11/06 09:04:31;;;;;;;6.57;3.08;;;10.00;99.90;;;;;;4947858;28;20055;-70
2022/11/06 09:06:57;;;;;;;8.20;2.83;;;10.10;99.90;;;;;;4931163;28;20113;-70
2022/11/06 09:09:30;;;;;;;6.45;3.10;;;10.20;99.90;;;;;;4933041;28;20526;-70
2022/11/06 09:12:00;;;;;;;7.90;2.97;;;10.40;99.90;;;;;;4931130;28;20378;-70
2022/11/06 09:14:26;;;;;;;4.47;2.17;;;10.50;99.90;;;;;;4951076;28;20051;-70
2022/11/06 09:16:52;;;;;;;5.15;2.58;;;10.70;99.90;;;;;;4951251;28;20046;-70
2022/11/06 09:19:18;;;;;;;8.50;2.78;;;10.70;99.90;;;;;;4969684;28;20055;-70
2022/11/06 09:21:44;;;;;;;4.13;2.55;;;10.80;99.90;;;;;;4958316;28;20035;-70
2022/11/06 09:24:10;;;;;;;5.93;2.47;;;10.80;99.90;;;;;;4939612;28;20042;-70
2022/11/06 09:26:36;;;;;;;4.85;2.65;;;10.70;99.90;;;;;;4948747;28;20129;-70
2022/11/06 09:29:02;;;;;;;12.48;3.30;;;10.70;99.90;;;;;;4954325;28;20505;-70
2022/11/06 09:31:28;;;;;;;9.15;3.05;;;10.70;99.90;;;;;;4956585;28;20371;-70
2022/11/06 09:33:54;;;;;;;6.38;2.50;;;10.70;99.90;;;;;;4952493;28;20039;-70
2022/11/06 09:36:20;;;;;;;9.05;2.70;;;10.70;99.90;;;;;;4951420;28;20044;-70
2022/11/06 09:38:47;;;;;;;7.97;3.03;;;10.70;99.90;;;;;;4936153;28;20043;-70
2022/11/06 09:41:36;;;;;;;8.95;3.15;;;10.70;99.90;;;;;;4951864;28;20089;-70
2022/11/06 09:44:11;;;;;;;8.25;2.97;;;10.70;99.90;;;;;;4965284;28;20552;-70
2022/11/06 09:46:44;;;;;;;4.53;2.65;;;10.70;99.90;;;;;;4948671;28;20044;-70
2022/11/06 09:49:36;;;;;;;8.82;2.80;;;10.60;99.90;;;;;;4954081;28;20047;-70
2022/11/06 09:52:34;;;;;;;5.60;2.80;;;10.60;99.90;;;;;;4950759;28;20508;-70
2022/11/06 09:55:10;;;;;;;10.52;4.15;;;10.60;99.90;;;;;;4958578;28;20415;-70
2022/11/06 09:57:43;;;;;;;5.63;2.80;;;10.60;99.90;;;;;;4942003;28;20572;-70
2022/11/06 10:00:14;;;;;;;7.22;2.80;;;10.70;99.90;;;;;;4962405;28;20049;-70
2022/11/06 10:02:42;;;;;;;7.30;3.03;;;10.70;99.90;;;;;;4952466;28;20066;-70
2022/11/06 10:05:32;;;;;;;8.43;2.90;;;10.80;99.90;;;;;;4952202;28;20062;-71
2022/11/06 10:08:21;;;;;;;13.90;2.90;;;10.80;99.90;;;;;;4946800;28;20043;-70
2022/11/06 10:11:06;;;;;;;8.88;2.63;;;10.90;99.90;;;;;;4950146;28;20035;-70
2022/11/06 10:13:44;;;;;;;7.00;2.67;;;10.90;99.90;;;;;;4971654;28;20074;-71
2022/11/06 10:16:33;;;;;;;4.55;2.63;;;10.90;99.90;;;;;;4965322;28;20034;-71
2022/11/06 10:19:06;;;;;;;5.68;2.35;;;10.90;99.90;;;;;;4951581;28;20047;-70
2022/11/06 10:22:07;;;;;;;10.13;2.72;;;10.90;99.90;;;;;;4946584;28;20043;-70
2022/11/06 10:24:46;;;;;;;5.38;3.13;;;10.90;99.90;;;;;;4954983;28;20035;-70
2022/11/06 10:27:38;;;;;;;5.40;2.90;;;10.90;99.90;;;;;;4953529;28;20046;-70
2022/11/06 10:30:09;;;;;;;9.60;3.40;;;11.00;99.90;;;;;;4960708;28;20102;-70
2022/11/06 10:33:08;;;;;;;9.57;3.13;;;11.10;99.90;;;;;;4945011;28;21346;-71
2022/11/06 10:35:49;;;;;;;6.28;2.40;;;11.20;99.90;;;;;;4955568;28;20031;-70
2022/11/06 10:38:26;;;;;;;5.90;2.63;;;11.30;99.90;;;;;;4950621;28;20078;-70
2022/11/06 10:40:54;;;;;;;7.57;2.50;;;11.40;99.90;;;;;;4946568;28;20382;-70
2022/11/06 10:43:42;;;;;;;6.38;2.92;;;11.50;99.90;;;;;;4952551;28;20505;-70
2022/11/06 10:46:35;;;;;;;6.75;2.55;;;11.60;99.90;;;;;;4961888;28;20185;-70
2022/11/06 10:49:05;;;;;;;8.68;3.00;;;11.60;99.90;;;;;;4931307;28;20121;-70
2022/11/06 10:51:31;;;;;;;6.95;2.92;;;11.60;99.90;;;;;;4948080;28;20240;-70
2022/11/06 10:53:59;;;;;;;6.10;2.22;;;11.60;99.90;;;;;;4952902;28;20378;-70
2022/11/06 10:56:31;;;;;;;6.47;2.63;;;11.60;99.90;;;;;;4938028;28;20087;-70
2022/11/06 10:58:57;;;;;;;10.05;2.55;;;11.60;99.90;;;;;;4948940;28;20079;-70
2022/11/06 11:01:23;;;;;;;6.28;2.20;;;11.60;99.90;;;;;;4949267;28;20103;-70
2022/11/06 11:03:50;;;;;;;5.43;2.20;;;11.60;99.90;;;;;;4913654;28;20146;-70
2022/11/06 11:06:17;;;;;;;5.43;2.20;;;11.60;99.90;;;;;;4937155;28;20041;-70
2022/11/06 11:08:44;;;;;;;8.43;2.70;;;11.60;99.90;;;;;;4951970;28;20102;-70
2022/11/06 11:11:13;;;;;;;5.50;2.25;;;11.60;99.90;;;;;;4951771;28;20043;-70
2022/11/06 11:13:40;;;;;;;8.63;2.20;;;11.70;99.90;;;;;;4932158;28;20467;-70
2022/11/06 11:16:32;;;;;;;6.03;1.95;;;11.70;99.90;;;;;;4932750;28;20070;-70
2022/11/06 11:19:24;;;;;;;7.47;2.20;;;11.80;99.90;;;;;;4928234;28;20683;-70
2022/11/06 11:22:07;;;;;;;5.65;2.42;;;11.90;99.90;;;;;;4948360;28;20109;-70
2022/11/06 11:24:32;;;;;;;;;;;12.10;99.90;;;;;;4932878;28;20043;-70
2022/11/06 11:27:05;;;;;;;4.97;2.00;;;12.10;99.90;;;;;;4948368;28;20285;-70
2022/11/06 11:29:40;;;;;;;3.55;1.70;;;12.20;99.90;;;;;;4935968;28;20039;-70
2022/11/06 11:32:06;;;;;;;5.43;1.95;;;12.30;99.90;;;;;;4946917;28;20043;-70
2022/11/06 11:34:36;;;;;;;5.70;3.05;;;12.40;99.90;;;;;;4949081;28;20493;-70
2022/11/06 11:37:04;;;;;;;4.47;2.00;;;12.40;99.90;;;;;;4951428;28;20552;-70
2022/11/06 11:39:42;;;;;;;4.85;2.00;;;12.50;99.90;;;;;;4949092;28;20106;-70
2022/11/06 11:42:27;;;;;;;6.22;1.90;;;12.50;99.90;;;;;;4919090;28;20086;-70
2022/11/06 11:45:08;;;;;;;8.40;2.20;;;12.60;99.90;;;;;;4950774;28;20064;-70
2022/11/06 11:47:42;;;;;;;7.47;2.15;;;12.50;99.90;;;;;;4932563;28;20063;-70
2022/11/06 11:50:30;;;;;;;6.15;1.70;;;12.50;99.90;;;;;;4947854;28;20048;-70
2022/11/06 11:53:04;;;;;;;5.03;2.03;;;12.40;99.90;;;;;;4957274;28;20054;-70
2022/11/06 11:55:35;;;;;;;6.80;2.60;;;12.40;99.90;;;;;;4948023;28;20381;-70
2022/11/06 11:58:01;;;;;;;5.25;1.92;;;12.40;99.90;;;;;;4945202;28;20118;-70
2022/11/06 12:00:28;;;;;;;6.47;2.03;;;12.40;99.90;;;;;;4930750;28;20055;-70
2022/11/06 12:02:59;;;;;;;4.85;1.85;;;12.30;99.90;;;;;;4957044;28;20233;-69
2022/11/06 12:05:38;;;;;;;7.90;2.42;;;12.30;99.90;;;;;;4931796;28;20055;-70
2022/11/06 12:08:06;;;;;;;9.48;2.42;;;12.20;99.90;;;;;;4929682;28;20074;-70
2022/11/06 12:10:36;;;;;;;4.13;1.83;;;12.20;99.90;;;;;;4948904;28;20070;-70
2022/11/06 12:13:13;;;;;;;5.30;2.17;;;12.20;99.90;;;;;;4950350;28;20047;-70
2022/11/06 12:15:54;;;;;;;10.57;2.08;;;12.20;99.90;;;;;;4966819;28;20477;-71
2022/11/06 12:18:53;;;;;;;4.93;2.00;;;12.90;99.90;;;;;;4953067;28;20086;-70
2022/11/06 12:21:38;;;;;;;9.75;2.03;;;12.30;99.90;;;;;;4938026;28;20047;-70
2022/11/06 12:24:15;;;;;;;3.58;2.00;;;12.40;99.90;;;;;;4932080;28;20039;-70
2022/11/06 12:26:56;;;;;;;5.07;1.70;;;12.40;99.90;;;;;;4948325;28;20091;-70
2022/11/06 12:29:35;;;;;;;5.57;2.22;;;12.50;99.90;;;;;;4964372;28;20034;-70
2022/11/06 12:32:22;;;;;;;6.13;1.70;;;12.40;99.90;;;;;;4962424;28;20039;-69
2022/11/06 12:35:16;;;;;;;4.03;1.95;;;12.40;99.90;;;;;;4932786;28;20488;-70
2022/11/06 12:37:42;;;;;;;3.58;1.70;;;12.40;99.90;;;;;;4945284;28;20069;-70
2022/11/06 12:40:21;;;;;;;5.28;1.85;;;12.40;99.90;;;;;;4962552;28;20496;-72
2022/11/06 12:42:59;;;;;;;6.40;2.15;;;12.40;99.90;;;;;;4947031;28;20681;-71
2022/11/06 12:45:42;;;;;;;4.70;2.03;;;12.50;99.90;;;;;;4944519;28;20058;-70
2022/11/06 12:48:31;;;;;;;4.28;2.08;;;12.50;99.90;;;;;;4947171;28;20264;-70
2022/11/06 12:51:11;;;;;;;6.75;2.05;;;12.50;99.90;;;;;;4944641;28;20073;-69
2022/11/06 12:53:41;;;;;;;4.50;1.77;;;12.40;99.90;;;;;;4946148;28;20636;-69
2022/11/06 12:56:26;;;;;;;3.85;1.98;;;12.30;99.90;;;;;;4944477;28;20086;-69
2022/11/06 12:59:07;;;;;;;4.95;1.60;;;12.30;99.90;;;;;;4948544;28;20071;-69
2022/11/06 13:01:43;;;;;;;3.92;1.65;;;12.20;99.90;;;;;;4945279;28;20070;-69
2022/11/06 13:04:27;;;;;;;5.18;2.00;;;12.20;99.90;;;;;;4944444;28;20413;-69
2022/11/06 13:07:26;;;;;;;6.65;1.95;;;12.20;99.90;;;;;;4943847;28;20043;-69
2022/11/06 13:10:18;;;;;;;6.38;2.10;;;12.20;99.90;;;;;;4945333;28;20122;-69
2022/11/06 13:13:01;;;;;;;5.10;1.80;;;12.10;99.90;;;;;;4944361;28;20087;-69
2022/11/06 13:15:45;;;;;;;4.07;1.85;;;12.10;99.90;;;;;;4944936;28;20552;-70
2022/11/06 13:18:22;;;;;;;3.45;1.77;;;12.10;99.90;;;;;;4929192;28;20126;-69
2022/11/06 13:21:06;;;;;;;5.13;2.22;;;12.10;99.90;;;;;;4930404;28;20031;-69
2022/11/06 13:23:41;;;;;;;4.30;1.90;;;12.10;99.90;;;;;;4946369;28;20039;-69
2022/11/06 13:26:44;;;;;;;7.55;2.20;;;12.10;99.90;;;;;;4945155;28;20103;-69
2022/11/06 13:29:16;;;;;;;2.90;1.92;;;12.10;99.90;;;;;;4945710;28;20039;-69
2022/11/06 13:31:53;;;;;;;;;;;12.10;99.90;;;;;;4948356;28;20059;-69